sensor_id;sensor_type;location;lat;lon;timestamp;P1;durP1;ratioP1;P2;durP2;ratioP2
47555;SDS011;33291;46.222;26.460;2023-12-28T00:00:15;27.60;;;10.02;;
47555;SDS011;33291;46.222;26.460;2023-12-28T00:02:41;24.17;;;10.80;;
47555;SDS011;33291;46.222;26.460;2023-12-28T00:05:06;25.63;;;9.13;;
47555;SDS011;33291;46.222;26.460;2023-12-28T00:07:32;38.08;;;15.50;;
47555;SDS011;33291;46.222;26.460;2023-12-28T00:09:57;31.02;;;13.27;;
47555;SDS011;33291;46.222;26.460;2023-12-28T00:12:23;40.38;;;16.75;;
47555;SDS011;33291;46.222;26.460;2023-12-28T00:14:48;40.47;;;15.02;;
47555;SDS011;33291;46.222;26.460;2023-12-28T00:17:14;27.17;;;11.30;;
47555;SDS011;33291;46.222;26.460;2023-12-28T00:19:39;24.75;;;11.30;;
47555;SDS011;33291;46.222;26.460;2023-12-28T00:22:05;12.60;;;5.53;;
47555;SDS011;33291;46.222;26.460;2023-12-28T00:24:30;12.48;;;5.55;;
47555;SDS011;33291;46.222;26.460;2023-12-28T00:26:56;11.70;;;5.35;;
47555;SDS011;33291;46.222;26.460;2023-12-28T00:29:21;20.13;;;9.30;;
47555;SDS011;33291;46.222;26.460;2023-12-28T00:31:47;32.03;;;12.75;;
47555;SDS011;33291;46.222;26.460;2023-12-28T00:34:12;6.85;;;2.92;;
47555;SDS011;33291;46.222;26.460;2023-12-28T00:36:38;1.92;;;1.27;;
47555;SDS011;33291;46.222;26.460;2023-12-28T00:39:04;3.50;;;2.10;;
47555;SDS011;33291;46.222;26.460;2023-12-28T00:41:29;8.07;;;3.78;;
47555;SDS011;33291;46.222;26.460;2023-12-28T00:43:55;6.05;;;1.42;;
47555;SDS011;33291;46.222;26.460;2023-12-28T00:46:20;12.95;;;5.38;;
47555;SDS011;33291;46.222;26.460;2023-12-28T00:48:46;4.13;;;2.42;;
47555;SDS011;33291;46.222;26.460;2023-12-28T00:51:11;10.20;;;4.88;;
47555;SDS011;33291;46.222;26.460;2023-12-28T00:53:37;4.00;;;1.60;;
47555;SDS011;33291;46.222;26.460;2023-12-28T00:56:02;1.80;;;1.20;;
47555;SDS011;33291;46.222;26.460;2023-12-28T00:58:28;3.00;;;1.27;;
47555;SDS011;33291;46.222;26.460;2023-12-28T01:00:53;6.35;;;1.40;;
47555;SDS011;33291;46.222;26.460;2023-12-28T01:03:21;4.10;;;2.50;;
47555;SDS011;33291;46.222;26.460;2023-12-28T01:05:48;6.47;;;2.22;;
47555;SDS011;33291;46.222;26.460;2023-12-28T01:08:16;4.65;;;1.90;;
47555;SDS011;33291;46.222;26.460;2023-12-28T01:10:42;6.25;;;2.33;;
47555;SDS011;33291;46.222;26.460;2023-12-28T01:13:08;4.07;;;2.00;;
47555;SDS011;33291;46.222;26.460;2023-12-28T01:15:33;4.30;;;1.65;;
47555;SDS011;33291;46.222;26.460;2023-12-28T01:17:59;8.32;;;2.55;;
47555;SDS011;33291;46.222;26.460;2023-12-28T01:20:24;11.20;;;6.47;;
47555;SDS011;33291;46.222;26.460;2023-12-28T01:22:50;6.35;;;2.97;;
47555;SDS011;33291;46.222;26.460;2023-12-28T01:25:16;8.98;;;3.45;;
47555;SDS011;33291;46.222;26.460;2023-12-28T01:27:41;6.18;;;3.05;;
47555;SDS011;33291;46.222;26.460;2023-12-28T01:30:07;2.67;;;1.23;;
47555;SDS011;33291;46.222;26.460;2023-12-28T01:32:33;5.43;;;2.08;;
47555;SDS011;33291;46.222;26.460;2023-12-28T01:34:58;13.32;;;7.30;;
47555;SDS011;33291;46.222;26.460;2023-12-28T01:37:24;4.93;;;1.92;;
47555;SDS011;33291;46.222;26.460;2023-12-28T01:39:49;5.35;;;2.33;;
47555;SDS011;33291;46.222;26.460;2023-12-28T01:42:15;3.25;;;1.50;;
47555;SDS011;33291;46.222;26.460;2023-12-28T01:44:40;9.40;;;4.43;;
47555;SDS011;33291;46.222;26.460;2023-12-28T01:47:06;7.85;;;2.47;;
47555;SDS011;33291;46.222;26.460;2023-12-28T01:49:32;6.40;;;2.78;;
47555;SDS011;33291;46.222;26.460;2023-12-28T01:52:00;1.92;;;1.17;;
47555;SDS011;33291;46.222;26.460;2023-12-28T01:54:27;4.78;;;1.58;;
47555;SDS011;33291;46.222;26.460;2023-12-28T01:56:54;6.80;;;1.42;;
47555;SDS011;33291;46.222;26.460;2023-12-28T01:59:20;2.28;;;1.30;;
47555;SDS011;33291;46.222;26.460;2023-12-28T02:01:45;6.47;;;2.03;;
47555;SDS011;33291;46.222;26.460;2023-12-28T02:04:11;3.05;;;1.60;;
47555;SDS011;33291;46.222;26.460;2023-12-28T02:06:37;16.13;;;5.00;;
47555;SDS011;33291;46.222;26.460;2023-12-28T02:09:03;10.75;;;4.20;;
47555;SDS011;33291;46.222;26.460;2023-12-28T02:11:29;10.30;;;4.50;;
47555;SDS011;33291;46.222;26.460;2023-12-28T02:13:54;9.23;;;3.40;;
47555;SDS011;33291;46.222;26.460;2023-12-28T02:16:31;8.98;;;3.60;;
47555;SDS011;33291;46.222;26.460;2023-12-28T02:19:00;11.75;;;4.25;;
47555;SDS011;33291;46.222;26.460;2023-12-28T02:21:31;8.27;;;3.17;;
47555;SDS011;33291;46.222;26.460;2023-12-28T02:23:57;5.90;;;2.88;;
47555;SDS011;33291;46.222;26.460;2023-12-28T02:26:23;8.38;;;2.70;;
47555;SDS011;33291;46.222;26.460;2023-12-28T02:28:49;12.75;;;5.30;;
47555;SDS011;33291;46.222;26.460;2023-12-28T02:31:19;17.10;;;7.13;;
47555;SDS011;33291;46.222;26.460;2023-12-28T02:33:50;19.13;;;8.13;;
47555;SDS011;33291;46.222;26.460;2023-12-28T02:36:23;25.17;;;9.85;;
47555;SDS011;33291;46.222;26.460;2023-12-28T02:38:51;26.42;;;10.65;;
47555;SDS011;33291;46.222;26.460;2023-12-28T02:41:17;32.13;;;14.35;;
47555;SDS011;33291;46.222;26.460;2023-12-28T02:43:44;34.83;;;14.98;;
47555;SDS011;33291;46.222;26.460;2023-12-28T02:46:11;40.60;;;17.35;;
47555;SDS011;33291;46.222;26.460;2023-12-28T02:48:37;28.58;;;12.65;;
47555;SDS011;33291;46.222;26.460;2023-12-28T02:51:03;31.30;;;13.98;;
47555;SDS011;33291;46.222;26.460;2023-12-28T02:53:28;23.13;;;9.80;;
47555;SDS011;33291;46.222;26.460;2023-12-28T02:55:54;21.48;;;9.77;;
47555;SDS011;33291;46.222;26.460;2023-12-28T02:58:19;32.75;;;14.60;;
47555;SDS011;33291;46.222;26.460;2023-12-28T03:00:45;13.98;;;6.45;;
47555;SDS011;33291;46.222;26.460;2023-12-28T03:03:10;6.60;;;2.67;;
47555;SDS011;33291;46.222;26.460;2023-12-28T03:05:36;44.42;;;20.75;;
47555;SDS011;33291;46.222;26.460;2023-12-28T03:08:01;31.73;;;15.75;;
47555;SDS011;33291;46.222;26.460;2023-12-28T03:10:27;15.95;;;9.00;;
47555;SDS011;33291;46.222;26.460;2023-12-28T03:12:53;13.50;;;6.97;;
47555;SDS011;33291;46.222;26.460;2023-12-28T03:15:18;10.45;;;4.80;;
47555;SDS011;33291;46.222;26.460;2023-12-28T03:17:44;5.63;;;3.30;;
47555;SDS011;33291;46.222;26.460;2023-12-28T03:20:09;18.05;;;8.23;;
47555;SDS011;33291;46.222;26.460;2023-12-28T03:22:35;6.43;;;3.45;;
47555;SDS011;33291;46.222;26.460;2023-12-28T03:25:01;4.22;;;1.50;;
47555;SDS011;33291;46.222;26.460;2023-12-28T03:27:27;6.88;;;1.35;;
47555;SDS011;33291;46.222;26.460;2023-12-28T03:29:52;1.98;;;1.13;;
47555;SDS011;33291;46.222;26.460;2023-12-28T03:32:18;7.47;;;4.05;;
47555;SDS011;33291;46.222;26.460;2023-12-28T03:34:43;3.65;;;2.15;;
47555;SDS011;33291;46.222;26.460;2023-12-28T03:37:09;8.77;;;4.30;;
47555;SDS011;33291;46.222;26.460;2023-12-28T03:39:36;4.70;;;1.67;;
47555;SDS011;33291;46.222;26.460;2023-12-28T03:42:02;2.22;;;1.00;;
47555;SDS011;33291;46.222;26.460;2023-12-28T03:44:28;3.58;;;1.02;;
47555;SDS011;33291;46.222;26.460;2023-12-28T03:46:53;4.30;;;1.70;;
47555;SDS011;33291;46.222;26.460;2023-12-28T03:49:19;4.47;;;2.38;;
47555;SDS011;33291;46.222;26.460;2023-12-28T03:51:45;17.20;;;7.10;;
47555;SDS011;33291;46.222;26.460;2023-12-28T03:54:12;8.90;;;4.78;;
47555;SDS011;33291;46.222;26.460;2023-12-28T03:56:37;12.13;;;6.20;;
47555;SDS011;33291;46.222;26.460;2023-12-28T03:59:06;2.97;;;1.67;;
47555;SDS011;33291;46.222;26.460;2023-12-28T04:01:34;5.53;;;3.08;;
47555;SDS011;33291;46.222;26.460;2023-12-28T04:04:00;4.43;;;1.80;;
47555;SDS011;33291;46.222;26.460;2023-12-28T04:06:26;33.20;;;14.18;;
47555;SDS011;33291;46.222;26.460;2023-12-28T04:08:51;20.25;;;7.80;;
47555;SDS011;33291;46.222;26.460;2023-12-28T04:11:17;10.98;;;5.18;;
47555;SDS011;33291;46.222;26.460;2023-12-28T04:13:42;15.10;;;7.53;;
47555;SDS011;33291;46.222;26.460;2023-12-28T04:16:11;26.50;;;14.73;;
47555;SDS011;33291;46.222;26.460;2023-12-28T04:18:38;3.53;;;2.75;;
47555;SDS011;33291;46.222;26.460;2023-12-28T04:21:07;3.38;;;2.25;;
47555;SDS011;33291;46.222;26.460;2023-12-28T04:23:33;8.20;;;4.35;;
47555;SDS011;33291;46.222;26.460;2023-12-28T04:25:59;8.55;;;4.47;;
47555;SDS011;33291;46.222;26.460;2023-12-28T04:28:24;5.43;;;2.40;;
47555;SDS011;33291;46.222;26.460;2023-12-28T04:30:50;3.45;;;2.08;;
47555;SDS011;33291;46.222;26.460;2023-12-28T04:33:16;5.95;;;2.88;;
47555;SDS011;33291;46.222;26.460;2023-12-28T04:35:44;10.00;;;4.47;;
47555;SDS011;33291;46.222;26.460;2023-12-28T04:38:09;7.82;;;4.05;;
47555;SDS011;33291;46.222;26.460;2023-12-28T04:40:35;5.90;;;2.58;;
47555;SDS011;33291;46.222;26.460;2023-12-28T04:43:00;5.13;;;1.60;;
47555;SDS011;33291;46.222;26.460;2023-12-28T04:45:26;4.65;;;2.45;;
47555;SDS011;33291;46.222;26.460;2023-12-28T04:47:52;2.67;;;1.60;;
47555;SDS011;33291;46.222;26.460;2023-12-28T04:50:18;8.18;;;4.05;;
47555;SDS011;33291;46.222;26.460;2023-12-28T04:52:43;5.72;;;3.38;;
47555;SDS011;33291;46.222;26.460;2023-12-28T04:55:09;5.13;;;2.13;;
47555;SDS011;33291;46.222;26.460;2023-12-28T04:57:36;3.42;;;1.52;;
47555;SDS011;33291;46.222;26.460;2023-12-28T05:00:01;3.95;;;1.20;;
47555;SDS011;33291;46.222;26.460;2023-12-28T05:02:28;2.45;;;1.00;;
47555;SDS011;33291;46.222;26.460;2023-12-28T05:04:53;3.58;;;1.65;;
47555;SDS011;33291;46.222;26.460;2023-12-28T05:07:19;2.97;;;1.02;;
47555;SDS011;33291;46.222;26.460;2023-12-28T05:09:44;2.00;;;0.77;;
47555;SDS011;33291;46.222;26.460;2023-12-28T05:12:10;2.67;;;1.40;;
47555;SDS011;33291;46.222;26.460;2023-12-28T05:14:35;3.60;;;1.30;;
47555;SDS011;33291;46.222;26.460;2023-12-28T05:17:01;5.07;;;2.70;;
47555;SDS011;33291;46.222;26.460;2023-12-28T05:19:26;1.55;;;0.70;;
47555;SDS011;33291;46.222;26.460;2023-12-28T05:21:52;3.53;;;1.25;;
47555;SDS011;33291;46.222;26.460;2023-12-28T05:24:17;3.47;;;1.45;;
47555;SDS011;33291;46.222;26.460;2023-12-28T05:26:43;4.68;;;1.90;;
47555;SDS011;33291;46.222;26.460;2023-12-28T05:29:08;4.75;;;1.63;;
47555;SDS011;33291;46.222;26.460;2023-12-28T05:31:34;6.50;;;2.72;;
47555;SDS011;33291;46.222;26.460;2023-12-28T05:34:00;5.22;;;2.72;;
47555;SDS011;33291;46.222;26.460;2023-12-28T05:36:25;6.57;;;2.30;;
47555;SDS011;33291;46.222;26.460;2023-12-28T05:38:51;4.55;;;1.95;;
47555;SDS011;33291;46.222;26.460;2023-12-28T05:41:16;13.00;;;6.43;;
47555;SDS011;33291;46.222;26.460;2023-12-28T05:43:42;12.07;;;6.15;;
47555;SDS011;33291;46.222;26.460;2023-12-28T05:46:08;21.13;;;9.80;;
47555;SDS011;33291;46.222;26.460;2023-12-28T05:48:33;13.07;;;6.43;;
47555;SDS011;33291;46.222;26.460;2023-12-28T05:50:59;8.98;;;3.67;;
47555;SDS011;33291;46.222;26.460;2023-12-28T05:53:25;24.15;;;11.00;;
47555;SDS011;33291;46.222;26.460;2023-12-28T05:55:51;11.98;;;5.97;;
47555;SDS011;33291;46.222;26.460;2023-12-28T05:58:17;7.57;;;4.25;;
47555;SDS011;33291;46.222;26.460;2023-12-28T06:00:43;7.97;;;3.55;;
47555;SDS011;33291;46.222;26.460;2023-12-28T06:03:08;7.95;;;3.45;;
47555;SDS011;33291;46.222;26.460;2023-12-28T06:05:34;19.80;;;8.10;;
47555;SDS011;33291;46.222;26.460;2023-12-28T06:08:00;22.13;;;8.77;;
47555;SDS011;33291;46.222;26.460;2023-12-28T06:10:25;16.10;;;8.38;;
47555;SDS011;33291;46.222;26.460;2023-12-28T06:12:51;17.80;;;7.55;;
47555;SDS011;33291;46.222;26.460;2023-12-28T06:15:16;15.50;;;7.60;;
47555;SDS011;33291;46.222;26.460;2023-12-28T06:17:42;17.17;;;8.02;;
47555;SDS011;33291;46.222;26.460;2023-12-28T06:20:08;25.00;;;12.40;;
47555;SDS011;33291;46.222;26.460;2023-12-28T06:22:37;20.10;;;8.23;;
47555;SDS011;33291;46.222;26.460;2023-12-28T06:25:03;12.63;;;6.90;;
47555;SDS011;33291;46.222;26.460;2023-12-28T06:27:29;12.35;;;5.75;;
47555;SDS011;33291;46.222;26.460;2023-12-28T06:29:55;15.98;;;6.20;;
47555;SDS011;33291;46.222;26.460;2023-12-28T06:32:20;10.77;;;4.53;;
47555;SDS011;33291;46.222;26.460;2023-12-28T06:34:46;25.42;;;9.50;;
47555;SDS011;33291;46.222;26.460;2023-12-28T06:37:12;21.42;;;8.70;;
47555;SDS011;33291;46.222;26.460;2023-12-28T06:39:38;23.40;;;9.35;;
47555;SDS011;33291;46.222;26.460;2023-12-28T06:42:04;18.65;;;9.48;;
47555;SDS011;33291;46.222;26.460;2023-12-28T06:44:30;35.55;;;13.10;;
47555;SDS011;33291;46.222;26.460;2023-12-28T06:46:55;36.05;;;14.68;;
47555;SDS011;33291;46.222;26.460;2023-12-28T06:49:21;25.88;;;9.45;;
47555;SDS011;33291;46.222;26.460;2023-12-28T06:51:47;26.08;;;11.15;;
47555;SDS011;33291;46.222;26.460;2023-12-28T06:54:13;32.58;;;14.48;;
47555;SDS011;33291;46.222;26.460;2023-12-28T06:56:40;19.90;;;8.70;;
47555;SDS011;33291;46.222;26.460;2023-12-28T06:59:05;18.17;;;8.48;;
47555;SDS011;33291;46.222;26.460;2023-12-28T07:01:31;35.38;;;13.95;;
47555;SDS011;33291;46.222;26.460;2023-12-28T07:03:56;25.00;;;11.60;;
47555;SDS011;33291;46.222;26.460;2023-12-28T07:06:24;36.83;;;16.75;;
47555;SDS011;33291;46.222;26.460;2023-12-28T07:08:49;37.42;;;16.77;;
47555;SDS011;33291;46.222;26.460;2023-12-28T07:11:15;34.67;;;13.90;;
47555;SDS011;33291;46.222;26.460;2023-12-28T07:13:41;34.50;;;15.52;;
47555;SDS011;33291;46.222;26.460;2023-12-28T07:16:06;31.23;;;14.05;;
47555;SDS011;33291;46.222;26.460;2023-12-28T07:18:32;30.98;;;13.00;;
47555;SDS011;33291;46.222;26.460;2023-12-28T07:20:58;29.58;;;14.13;;
47555;SDS011;33291;46.222;26.460;2023-12-28T07:23:24;29.30;;;15.48;;
47555;SDS011;33291;46.222;26.460;2023-12-28T07:25:49;25.05;;;13.15;;
47555;SDS011;33291;46.222;26.460;2023-12-28T07:28:15;42.95;;;19.90;;
47555;SDS011;33291;46.222;26.460;2023-12-28T07:30:41;37.75;;;17.85;;
47555;SDS011;33291;46.222;26.460;2023-12-28T07:33:06;42.45;;;20.23;;
47555;SDS011;33291;46.222;26.460;2023-12-28T07:35:32;38.38;;;19.73;;
47555;SDS011;33291;46.222;26.460;2023-12-28T07:37:58;39.70;;;18.15;;
47555;SDS011;33291;46.222;26.460;2023-12-28T07:40:23;40.55;;;19.73;;
47555;SDS011;33291;46.222;26.460;2023-12-28T07:42:49;37.17;;;17.08;;
47555;SDS011;33291;46.222;26.460;2023-12-28T07:45:14;31.02;;;15.27;;
47555;SDS011;33291;46.222;26.460;2023-12-28T07:47:40;39.75;;;18.67;;
47555;SDS011;33291;46.222;26.460;2023-12-28T07:50:06;37.17;;;17.92;;
47555;SDS011;33291;46.222;26.460;2023-12-28T07:52:32;33.88;;;16.80;;
47555;SDS011;33291;46.222;26.460;2023-12-28T07:54:58;44.00;;;19.75;;
47555;SDS011;33291;46.222;26.460;2023-12-28T07:57:24;45.00;;;22.67;;
47555;SDS011;33291;46.222;26.460;2023-12-28T07:59:49;40.35;;;20.77;;
47555;SDS011;33291;46.222;26.460;2023-12-28T08:02:15;59.53;;;28.25;;
47555;SDS011;33291;46.222;26.460;2023-12-28T08:04:41;58.25;;;26.50;;
47555;SDS011;33291;46.222;26.460;2023-12-28T08:07:06;48.85;;;23.05;;
47555;SDS011;33291;46.222;26.460;2023-12-28T08:09:33;57.40;;;27.42;;
47555;SDS011;33291;46.222;26.460;2023-12-28T08:12:00;40.10;;;20.42;;
47555;SDS011;33291;46.222;26.460;2023-12-28T08:14:27;28.92;;;15.32;;
47555;SDS011;33291;46.222;26.460;2023-12-28T08:16:53;66.30;;;27.90;;
47555;SDS011;33291;46.222;26.460;2023-12-28T08:19:18;185.15;;;60.70;;
47555;SDS011;33291;46.222;26.460;2023-12-28T08:21:44;85.78;;;33.35;;
47555;SDS011;33291;46.222;26.460;2023-12-28T08:24:09;178.23;;;57.78;;
47555;SDS011;33291;46.222;26.460;2023-12-28T08:26:35;165.55;;;54.97;;
47555;SDS011;33291;46.222;26.460;2023-12-28T08:29:01;133.98;;;48.67;;
47555;SDS011;33291;46.222;26.460;2023-12-28T08:31:27;266.55;;;95.93;;
47555;SDS011;33291;46.222;26.460;2023-12-28T08:33:54;195.73;;;73.63;;
47555;SDS011;33291;46.222;26.460;2023-12-28T08:36:19;127.80;;;47.65;;
47555;SDS011;33291;46.222;26.460;2023-12-28T08:38:45;124.93;;;44.85;;
47555;SDS011;33291;46.222;26.460;2023-12-28T08:41:23;117.85;;;42.33;;
47555;SDS011;33291;46.222;26.460;2023-12-28T08:43:49;101.47;;;37.45;;
47555;SDS011;33291;46.222;26.460;2023-12-28T08:46:17;99.90;;;35.65;;
47555;SDS011;33291;46.222;26.460;2023-12-28T08:48:42;105.57;;;37.45;;
47555;SDS011;33291;46.222;26.460;2023-12-28T08:51:11;96.65;;;37.53;;
47555;SDS011;33291;46.222;26.460;2023-12-28T08:53:39;90.60;;;37.78;;
47555;SDS011;33291;46.222;26.460;2023-12-28T08:56:13;55.67;;;20.92;;
47555;SDS011;33291;46.222;26.460;2023-12-28T08:58:40;38.38;;;14.90;;
47555;SDS011;33291;46.222;26.460;2023-12-28T09:01:06;33.58;;;14.30;;
47555;SDS011;33291;46.222;26.460;2023-12-28T09:03:32;36.75;;;14.35;;
47555;SDS011;33291;46.222;26.460;2023-12-28T09:05:57;30.92;;;13.70;;
47555;SDS011;33291;46.222;26.460;2023-12-28T09:08:23;17.67;;;8.40;;
47555;SDS011;33291;46.222;26.460;2023-12-28T09:10:48;22.58;;;9.60;;
47555;SDS011;33291;46.222;26.460;2023-12-28T09:13:16;22.02;;;8.35;;
47555;SDS011;33291;46.222;26.460;2023-12-28T09:15:42;18.80;;;8.45;;
47555;SDS011;33291;46.222;26.460;2023-12-28T09:18:08;15.02;;;6.68;;
47555;SDS011;33291;46.222;26.460;2023-12-28T09:20:34;18.05;;;7.85;;
47555;SDS011;33291;46.222;26.460;2023-12-28T09:23:00;20.50;;;8.43;;
47555;SDS011;33291;46.222;26.460;2023-12-28T09:25:26;17.25;;;6.65;;
47555;SDS011;33291;46.222;26.460;2023-12-28T09:27:52;14.60;;;6.07;;
47555;SDS011;33291;46.222;26.460;2023-12-28T09:30:18;13.57;;;6.82;;
47555;SDS011;33291;46.222;26.460;2023-12-28T09:32:44;14.32;;;7.45;;
47555;SDS011;33291;46.222;26.460;2023-12-28T09:35:09;15.73;;;7.75;;
47555;SDS011;33291;46.222;26.460;2023-12-28T09:37:35;13.55;;;6.70;;
47555;SDS011;33291;46.222;26.460;2023-12-28T09:40:01;15.85;;;7.05;;
47555;SDS011;33291;46.222;26.460;2023-12-28T09:42:28;14.70;;;6.80;;
47555;SDS011;33291;46.222;26.460;2023-12-28T09:44:57;17.08;;;7.53;;
47555;SDS011;33291;46.222;26.460;2023-12-28T09:47:23;20.38;;;10.35;;
47555;SDS011;33291;46.222;26.460;2023-12-28T09:49:49;19.10;;;9.05;;
47555;SDS011;33291;46.222;26.460;2023-12-28T09:52:15;17.88;;;8.45;;
47555;SDS011;33291;46.222;26.460;2023-12-28T09:54:40;10.50;;;5.53;;
47555;SDS011;33291;46.222;26.460;2023-12-28T09:57:06;57.50;;;22.92;;
47555;SDS011;33291;46.222;26.460;2023-12-28T09:59:32;19.30;;;8.18;;
47555;SDS011;33291;46.222;26.460;2023-12-28T10:01:58;16.60;;;7.82;;
47555;SDS011;33291;46.222;26.460;2023-12-28T10:04:26;14.25;;;7.85;;
47555;SDS011;33291;46.222;26.460;2023-12-28T10:06:54;47.60;;;21.67;;
47555;SDS011;33291;46.222;26.460;2023-12-28T10:09:20;20.52;;;10.05;;
47555;SDS011;33291;46.222;26.460;2023-12-28T10:11:46;17.88;;;8.93;;
47555;SDS011;33291;46.222;26.460;2023-12-28T10:14:12;13.38;;;6.13;;
47555;SDS011;33291;46.222;26.460;2023-12-28T10:16:41;15.27;;;7.30;;
47555;SDS011;33291;46.222;26.460;2023-12-28T10:19:07;21.30;;;10.85;;
47555;SDS011;33291;46.222;26.460;2023-12-28T10:21:33;15.13;;;7.20;;
47555;SDS011;33291;46.222;26.460;2023-12-28T10:23:59;36.10;;;14.63;;
47555;SDS011;33291;46.222;26.460;2023-12-28T10:26:24;83.45;;;31.35;;
47555;SDS011;33291;46.222;26.460;2023-12-28T10:28:50;48.10;;;20.17;;
47555;SDS011;33291;46.222;26.460;2023-12-28T10:31:22;20.05;;;8.88;;
47555;SDS011;33291;46.222;26.460;2023-12-28T10:33:48;16.48;;;6.15;;
47555;SDS011;33291;46.222;26.460;2023-12-28T10:36:13;12.35;;;5.13;;
47555;SDS011;33291;46.222;26.460;2023-12-28T10:38:41;24.17;;;6.57;;
47555;SDS011;33291;46.222;26.460;2023-12-28T10:41:10;18.75;;;7.38;;
47555;SDS011;33291;46.222;26.460;2023-12-28T10:46:28;13.65;;;6.88;;
47555;SDS011;33291;46.222;26.460;2023-12-28T10:49:00;20.17;;;8.50;;
47555;SDS011;33291;46.222;26.460;2023-12-28T10:51:35;6.95;;;2.20;;
47555;SDS011;33291;46.222;26.460;2023-12-28T10:56:46;4.70;;;2.38;;
47555;SDS011;33291;46.222;26.460;2023-12-28T10:59:17;8.40;;;2.60;;
47555;SDS011;33291;46.222;26.460;2023-12-28T11:02:03;4.63;;;2.60;;
47555;SDS011;33291;46.222;26.460;2023-12-28T11:07:13;4.75;;;2.60;;
47555;SDS011;33291;46.222;26.460;2023-12-28T11:09:41;2.45;;;1.55;;
47555;SDS011;33291;46.222;26.460;2023-12-28T11:12:07;2.97;;;1.63;;
47555;SDS011;33291;46.222;26.460;2023-12-28T11:14:35;15.80;;;2.97;;
47555;SDS011;33291;46.222;26.460;2023-12-28T11:17:04;13.13;;;3.25;;
47555;SDS011;33291;46.222;26.460;2023-12-28T11:19:30;9.68;;;3.70;;
47555;SDS011;33291;46.222;26.460;2023-12-28T11:21:56;6.53;;;2.45;;
47555;SDS011;33291;46.222;26.460;2023-12-28T11:24:25;4.85;;;2.50;;
47555;SDS011;33291;46.222;26.460;2023-12-28T11:26:52;8.43;;;3.00;;
47555;SDS011;33291;46.222;26.460;2023-12-28T11:29:22;2.83;;;1.55;;
47555;SDS011;33291;46.222;26.460;2023-12-28T11:31:52;5.53;;;2.13;;
47555;SDS011;33291;46.222;26.460;2023-12-28T11:34:25;2.53;;;1.00;;
47555;SDS011;33291;46.222;26.460;2023-12-28T11:36:52;1.00;;;0.75;;
47555;SDS011;33291;46.222;26.460;2023-12-28T11:39:24;4.32;;;1.33;;
47555;SDS011;33291;46.222;26.460;2023-12-28T11:42:05;3.17;;;0.95;;
47555;SDS011;33291;46.222;26.460;2023-12-28T11:44:36;3.50;;;1.50;;
47555;SDS011;33291;46.222;26.460;2023-12-28T11:47:11;2.35;;;1.30;;
47555;SDS011;33291;46.222;26.460;2023-12-28T11:52:05;1.88;;;0.73;;
47555;SDS011;33291;46.222;26.460;2023-12-28T11:54:30;1.55;;;0.70;;
47555;SDS011;33291;46.222;26.460;2023-12-28T11:56:56;3.53;;;1.15;;
47555;SDS011;33291;46.222;26.460;2023-12-28T11:59:21;5.07;;;2.60;;
47555;SDS011;33291;46.222;26.460;2023-12-28T12:01:50;9.60;;;3.30;;
47555;SDS011;33291;46.222;26.460;2023-12-28T12:04:18;6.85;;;2.33;;
47555;SDS011;33291;46.222;26.460;2023-12-28T12:06:44;3.72;;;1.50;;
47555;SDS011;33291;46.222;26.460;2023-12-28T12:09:11;4.05;;;1.52;;
47555;SDS011;33291;46.222;26.460;2023-12-28T12:11:38;11.57;;;6.07;;
47555;SDS011;33291;46.222;26.460;2023-12-28T12:14:07;11.15;;;3.67;;
47555;SDS011;33291;46.222;26.460;2023-12-28T12:16:35;12.25;;;5.07;;
47555;SDS011;33291;46.222;26.460;2023-12-28T12:19:03;6.07;;;3.20;;
47555;SDS011;33291;46.222;26.460;2023-12-28T12:21:34;7.72;;;3.65;;
47555;SDS011;33291;46.222;26.460;2023-12-28T12:24:00;5.93;;;2.47;;
47555;SDS011;33291;46.222;26.460;2023-12-28T12:26:26;9.02;;;2.35;;
47555;SDS011;33291;46.222;26.460;2023-12-28T12:28:52;6.57;;;3.50;;
47555;SDS011;33291;46.222;26.460;2023-12-28T12:31:18;7.13;;;2.75;;
47555;SDS011;33291;46.222;26.460;2023-12-28T12:33:44;13.90;;;3.70;;
47555;SDS011;33291;46.222;26.460;2023-12-28T12:36:10;7.75;;;2.28;;
47555;SDS011;33291;46.222;26.460;2023-12-28T12:38:36;3.47;;;1.50;;
47555;SDS011;33291;46.222;26.460;2023-12-28T12:41:02;7.40;;;2.25;;
47555;SDS011;33291;46.222;26.460;2023-12-28T12:43:28;4.90;;;2.70;;
47555;SDS011;33291;46.222;26.460;2023-12-28T12:45:54;13.25;;;4.85;;
47555;SDS011;33291;46.222;26.460;2023-12-28T12:48:19;11.77;;;4.03;;
47555;SDS011;33291;46.222;26.460;2023-12-28T12:50:45;6.03;;;3.50;;
47555;SDS011;33291;46.222;26.460;2023-12-28T12:53:11;16.63;;;9.27;;
47555;SDS011;33291;46.222;26.460;2023-12-28T12:55:37;7.80;;;3.95;;
47555;SDS011;33291;46.222;26.460;2023-12-28T12:58:07;6.22;;;3.63;;
47555;SDS011;33291;46.222;26.460;2023-12-28T13:00:35;14.02;;;4.45;;
47555;SDS011;33291;46.222;26.460;2023-12-28T13:03:00;8.65;;;5.45;;
47555;SDS011;33291;46.222;26.460;2023-12-28T13:05:26;22.08;;;8.63;;
47555;SDS011;33291;46.222;26.460;2023-12-28T13:07:53;18.95;;;6.75;;
47555;SDS011;33291;46.222;26.460;2023-12-28T13:10:19;26.33;;;10.70;;
47555;SDS011;33291;46.222;26.460;2023-12-28T13:12:45;15.38;;;7.72;;
47555;SDS011;33291;46.222;26.460;2023-12-28T13:15:10;25.92;;;12.50;;
47555;SDS011;33291;46.222;26.460;2023-12-28T13:17:36;14.93;;;7.25;;
47555;SDS011;33291;46.222;26.460;2023-12-28T13:20:02;22.75;;;10.82;;
47555;SDS011;33291;46.222;26.460;2023-12-28T13:22:30;11.40;;;5.68;;
47555;SDS011;33291;46.222;26.460;2023-12-28T13:24:57;16.83;;;6.18;;
47555;SDS011;33291;46.222;26.460;2023-12-28T13:27:23;30.58;;;15.07;;
47555;SDS011;33291;46.222;26.460;2023-12-28T13:29:49;37.10;;;18.05;;
47555;SDS011;33291;46.222;26.460;2023-12-28T13:32:14;14.25;;;7.38;;
47555;SDS011;33291;46.222;26.460;2023-12-28T13:34:40;14.50;;;7.25;;
47555;SDS011;33291;46.222;26.460;2023-12-28T13:37:06;37.53;;;17.60;;
47555;SDS011;33291;46.222;26.460;2023-12-28T13:39:31;42.97;;;22.25;;
47555;SDS011;33291;46.222;26.460;2023-12-28T13:41:58;47.85;;;24.08;;
47555;SDS011;33291;46.222;26.460;2023-12-28T13:44:23;54.58;;;24.23;;
47555;SDS011;33291;46.222;26.460;2023-12-28T13:46:49;54.45;;;26.42;;
47555;SDS011;33291;46.222;26.460;2023-12-28T13:49:14;38.22;;;16.75;;
47555;SDS011;33291;46.222;26.460;2023-12-28T13:51:40;41.25;;;15.40;;
47555;SDS011;33291;46.222;26.460;2023-12-28T13:54:05;21.67;;;11.05;;
47555;SDS011;33291;46.222;26.460;2023-12-28T13:56:31;28.83;;;10.23;;
47555;SDS011;33291;46.222;26.460;2023-12-28T13:58:57;13.32;;;6.10;;
47555;SDS011;33291;46.222;26.460;2023-12-28T14:01:22;27.52;;;11.50;;
47555;SDS011;33291;46.222;26.460;2023-12-28T14:03:48;16.02;;;8.18;;
47555;SDS011;33291;46.222;26.460;2023-12-28T14:06:16;15.48;;;6.40;;
47555;SDS011;33291;46.222;26.460;2023-12-28T14:08:42;13.82;;;5.82;;
47555;SDS011;33291;46.222;26.460;2023-12-28T14:11:07;15.32;;;6.50;;
47555;SDS011;33291;46.222;26.460;2023-12-28T14:13:34;20.48;;;8.32;;
47555;SDS011;33291;46.222;26.460;2023-12-28T14:16:02;12.13;;;6.03;;
47555;SDS011;33291;46.222;26.460;2023-12-28T14:18:28;19.25;;;8.07;;
47555;SDS011;33291;46.222;26.460;2023-12-28T14:20:54;23.25;;;11.43;;
47555;SDS011;33291;46.222;26.460;2023-12-28T14:23:19;17.70;;;9.15;;
47555;SDS011;33291;46.222;26.460;2023-12-28T14:25:45;21.80;;;8.75;;
47555;SDS011;33291;46.222;26.460;2023-12-28T14:28:16;19.55;;;8.93;;